createdAt,value
2016-06-07T00:00:04.163Z,0
2016-06-07T00:01:04.260Z,0
2016-06-07T00:02:04.106Z,0
2016-06-07T00:03:04.281Z,0
2016-06-07T00:04:04.313Z,0
2016-06-07T00:05:04.380Z,0
2016-06-07T00:06:05.398Z,0
2016-06-07T00:07:04.494Z,0
2016-06-07T00:08:04.512Z,0
2016-06-07T00:09:04.593Z,0
2016-06-07T00:10:04.596Z,0
2016-06-07T00:11:04.615Z,0
2016-06-07T00:12:04.696Z,0
2016-06-07T00:13:04.698Z,0
2016-06-07T00:14:04.731Z,0
2016-06-07T00:15:04.828Z,0
2016-06-07T00:16:04.862Z,0
2016-06-07T00:17:04.881Z,0
2016-06-07T00:18:04.914Z,0
2016-06-07T00:19:04.979Z,0
2016-06-07T00:20:05.045Z,0
2016-06-07T00:21:05.157Z,0
2016-06-07T00:22:05.082Z,0
2016-06-07T00:23:05.162Z,0
2016-06-07T00:24:05.164Z,0
2016-06-07T00:25:05.214Z,0
2016-06-07T00:26:05.248Z,0
2016-06-07T00:27:05.297Z,0
2016-06-07T00:28:05.208Z,0
2016-06-07T00:29:05.367Z,0
2016-06-07T00:30:05.431Z,0
2016-06-07T00:31:05.480Z,0
2016-06-07T00:32:05.468Z,0
2016-06-07T00:33:05.533Z,0
2016-06-07T00:34:05.630Z,0
2016-06-07T00:35:05.601Z,0
2016-06-07T00:36:05.666Z,0
2016-06-07T00:37:05.731Z,0
2016-06-07T00:38:05.766Z,0
2016-06-07T00:39:05.783Z,0
2016-06-07T00:40:05.817Z,0
2016-06-07T00:41:05.867Z,0
2016-06-07T00:42:05.979Z,0
2016-06-07T00:43:05.935Z,0
2016-06-07T00:44:05.984Z,0
2016-06-07T00:45:06.065Z,0
2016-06-07T00:46:05.927Z,0
2016-06-07T00:47:06.102Z,0
2016-06-07T00:48:06.151Z,0
2016-06-07T00:49:06.248Z,0
2016-06-07T00:50:06.078Z,0
2016-06-07T00:51:07.550Z,0
2016-06-07T00:52:06.303Z,0
2016-06-07T00:53:06.228Z,0
2016-06-07T00:54:06.386Z,0
2016-06-07T00:55:06.311Z,0
2016-06-07T00:56:06.486Z,0
2016-06-07T00:57:06.582Z,0
2016-06-07T00:58:06.569Z,0
2016-06-07T00:59:06.650Z,0
2016-06-07T01:00:06.715Z,0
2016-06-07T01:01:06.702Z,0
2016-06-07T01:02:06.720Z,0
2016-06-07T01:03:06.786Z,0
2016-06-07T01:04:06.835Z,0
2016-06-07T01:05:06.932Z,0
2016-06-07T01:06:06.777Z,0
2016-06-07T01:07:06.780Z,0
2016-06-07T01:08:07.033Z,0
2016-06-07T01:09:07.036Z,0
2016-06-07T01:10:07.071Z,0
2016-06-07T01:11:07.088Z,0
2016-06-07T01:12:07.184Z,0
2016-06-07T01:13:07.203Z,0
2016-06-07T01:14:07.221Z,0
2016-06-07T01:15:07.287Z,0
2016-06-07T01:16:07.382Z,0
2016-06-07T01:17:07.354Z,0
2016-06-07T01:18:07.388Z,0
2016-06-07T01:19:07.281Z,0
2016-06-07T01:20:07.503Z,0
2016-06-07T01:21:07.709Z,0
2016-06-07T01:22:08.165Z,0
2016-06-07T01:23:07.589Z,0
2016-06-07T01:24:07.639Z,0
2016-06-07T01:25:07.672Z,0
2016-06-07T01:26:07.723Z,0
2016-06-07T01:27:07.787Z,0
2016-06-07T01:28:07.790Z,0
2016-06-07T01:29:07.839Z,0
2016-06-07T01:30:07.936Z,0
2016-06-07T01:31:07.970Z,0
2016-06-07T01:32:07.817Z,0
2016-06-07T01:33:08.022Z,0
2016-06-07T01:34:08.072Z,0
2016-06-07T01:35:08.090Z,0
2016-06-07T01:36:08.516Z,0
2016-06-07T01:37:08.674Z,0
2016-06-07T01:38:08.271Z,0
2016-06-07T01:39:08.257Z,0
2016-06-07T01:40:08.307Z,0
2016-06-07T01:41:08.232Z,0
2016-06-07T01:42:08.391Z,0
2016-06-07T01:43:08.409Z,0
2016-06-07T01:44:08.317Z,0
2016-06-07T01:45:08.492Z,0
2016-06-07T01:46:08.542Z,0
2016-06-07T01:47:08.559Z,0
2016-06-07T01:48:08.660Z,0
2016-06-07T01:49:08.709Z,0
2016-06-07T01:50:08.789Z,0
2016-06-07T01:51:08.322Z,0
2016-06-07T01:52:09.074Z,0
2016-06-07T01:53:08.902Z,0
2016-06-07T01:54:08.941Z,0
2016-06-07T01:55:08.996Z,0
2016-06-07T01:56:09.130Z,0
2016-06-07T01:57:09.090Z,0
2016-06-07T01:58:09.145Z,0
2016-06-07T01:59:10.056Z,0
2016-06-07T02:00:09.278Z,0
2016-06-07T02:01:09.252Z,0
2016-06-07T02:02:09.304Z,0
2016-06-07T02:03:09.355Z,0
2016-06-07T02:04:09.437Z,0
2016-06-07T02:05:09.441Z,0
2016-06-07T02:06:10.350Z,0
2016-06-07T02:07:10.103Z,0
2016-06-07T02:08:09.545Z,0
2016-06-07T02:09:09.595Z,0
2016-06-07T02:10:09.691Z,0
2016-06-07T02:11:09.709Z,0
2016-06-07T02:12:09.713Z,0
2016-06-07T02:13:09.778Z,4
2016-06-07T02:14:09.797Z,4
2016-06-07T02:15:09.862Z,4
2016-06-07T02:16:09.724Z,0
2016-06-07T02:17:09.992Z,4
2016-06-07T02:18:10.011Z,4
2016-06-07T02:19:10.013Z,4
2016-06-07T02:20:10.047Z,4
2016-06-07T02:21:09.987Z,4
2016-06-07T02:22:10.709Z,4
2016-06-07T02:23:10.180Z,8
2016-06-07T02:24:10.230Z,4
2016-06-07T02:25:10.264Z,8
2016-06-07T02:26:10.298Z,12
2016-06-07T02:27:10.316Z,12
2016-06-07T02:28:10.381Z,12
2016-06-07T02:29:10.462Z,16
2016-06-07T02:30:10.448Z,16
2016-06-07T02:31:10.514Z,20
2016-06-07T02:32:10.392Z,20
2016-06-07T02:33:10.567Z,24
2016-06-07T02:34:10.460Z,28
2016-06-07T02:35:10.666Z,32
2016-06-07T02:36:11.653Z,36
2016-06-07T02:37:11.217Z,40
2016-06-07T02:38:10.767Z,48
2016-06-07T02:39:10.880Z,52
2016-06-07T02:40:10.867Z,56
2016-06-07T02:41:10.900Z,68
2016-06-07T02:42:10.935Z,72
2016-06-07T02:43:11.141Z,80
2016-06-07T02:44:11.033Z,92
2016-06-07T02:45:11.068Z,104
2016-06-07T02:46:11.149Z,112
2016-06-07T02:47:10.994Z,124
2016-06-07T02:48:11.185Z,140
2016-06-07T02:49:11.265Z,152
2016-06-07T02:50:11.285Z,168
2016-06-07T02:51:11.319Z,184
2016-06-07T02:52:11.757Z,196
2016-06-07T02:53:11.433Z,212
2016-06-07T02:54:11.435Z,232
2016-06-07T02:55:11.485Z,252
2016-06-07T02:56:11.848Z,272
2016-06-07T02:57:11.584Z,292
2016-06-07T02:58:11.603Z,312
2016-06-07T02:59:11.637Z,336
2016-06-07T03:00:11.687Z,356
2016-06-07T03:01:11.720Z,380
2016-06-07T03:02:11.739Z,404
2016-06-07T03:03:11.787Z,432
2016-06-07T03:04:11.869Z,456
2016-06-07T03:05:11.887Z,484
2016-06-07T03:06:11.639Z,512
2016-06-07T03:07:12.017Z,540
2016-06-07T03:08:12.020Z,568
2016-06-07T03:09:12.039Z,596
2016-06-07T03:10:12.072Z,624
2016-06-07T03:11:12.153Z,652
2016-06-07T03:12:12.186Z,680
2016-06-07T03:13:12.189Z,712
2016-06-07T03:14:12.239Z,740
2016-06-07T03:15:12.335Z,772
2016-06-07T03:16:12.354Z,800
2016-06-07T03:17:12.357Z,828
2016-06-07T03:18:12.250Z,860
2016-06-07T03:19:12.316Z,884
2016-06-07T03:20:12.333Z,916
2016-06-07T03:21:12.571Z,948
2016-06-07T03:22:12.605Z,980
2016-06-07T03:23:12.607Z,1004
2016-06-07T03:24:12.657Z,1036
2016-06-07T03:25:12.535Z,1064
2016-06-07T03:26:12.819Z,1092
2016-06-07T03:27:12.774Z,1120
2016-06-07T03:28:12.809Z,1148
2016-06-07T03:29:12.904Z,1176
2016-06-07T03:30:12.767Z,1200
2016-06-07T03:31:12.942Z,1232
2016-06-07T03:32:12.820Z,1260
2016-06-07T03:33:13.040Z,1284
2016-06-07T03:34:13.059Z,1312
2016-06-07T03:35:13.092Z,1336
2016-06-07T03:36:13.408Z,1364
2016-06-07T03:37:13.536Z,1388
2016-06-07T03:38:13.210Z,1412
2016-06-07T03:39:13.244Z,1436
2016-06-07T03:40:13.169Z,1460
2016-06-07T03:41:13.359Z,1484
2016-06-07T03:42:13.377Z,1508
2016-06-07T03:43:13.427Z,1532
2016-06-07T03:44:13.461Z,1556
2016-06-07T03:45:13.510Z,1580
2016-06-07T03:46:13.528Z,1604
2016-06-07T03:47:13.610Z,1624
2016-06-07T03:48:13.658Z,1648
2016-06-07T03:49:13.661Z,1672
2016-06-07T03:50:13.727Z,1696
2016-06-07T03:51:13.761Z,1716
2016-06-07T03:52:14.451Z,1740
2016-06-07T03:53:13.672Z,1756
2016-06-07T03:54:13.925Z,1776
2016-06-07T03:55:13.943Z,1800
2016-06-07T03:56:13.930Z,1816
2016-06-07T03:57:13.995Z,1836
2016-06-07T03:58:14.076Z,1856
2016-06-07T03:59:14.063Z,1876
2016-06-07T04:00:14.098Z,1892
2016-06-07T04:01:14.179Z,1912
2016-06-07T04:02:13.868Z,1928
2016-06-07T04:03:14.231Z,1944
2016-06-07T04:04:14.264Z,1964
2016-06-07T04:05:14.314Z,1984
2016-06-07T04:06:14.926Z,2000
2016-06-07T04:07:15.164Z,2016
2016-06-07T04:08:14.431Z,2036
2016-06-07T04:09:14.325Z,2048
2016-06-07T04:10:14.515Z,2064
2016-06-07T04:11:14.533Z,2080
2016-06-07T04:12:14.630Z,2096
2016-06-07T04:13:14.633Z,2108
2016-06-07T04:14:14.683Z,2128
2016-06-07T04:15:14.716Z,2140
2016-06-07T04:16:14.812Z,2156
2016-06-07T04:17:14.800Z,2172
2016-06-07T04:18:14.834Z,2188
2016-06-07T04:19:14.883Z,2200
2016-06-07T04:20:14.979Z,2216
2016-06-07T04:21:15.591Z,2228
2016-06-07T04:22:15.422Z,2244
2016-06-07T04:23:14.910Z,2260
2016-06-07T04:24:15.085Z,2272
2016-06-07T04:25:15.102Z,2284
2016-06-07T04:26:15.167Z,2300
2016-06-07T04:27:15.233Z,2312
2016-06-07T04:28:15.251Z,2324
2016-06-07T04:29:15.269Z,2340
2016-06-07T04:30:15.334Z,2352
2016-06-07T04:31:15.369Z,2364
2016-06-07T04:32:15.418Z,2376
2016-06-07T04:33:15.451Z,2388
2016-06-07T04:34:15.533Z,2400
2016-06-07T04:35:15.550Z,2416
2016-06-07T04:36:15.570Z,2428
2016-06-07T04:37:16.634Z,2440
2016-06-07T04:38:15.731Z,2452
2016-06-07T04:39:15.686Z,2464
2016-06-07T04:40:15.737Z,2476
2016-06-07T04:41:15.848Z,2488
2016-06-07T04:42:15.664Z,2500
2016-06-07T04:43:15.853Z,2512
2016-06-07T04:44:15.889Z,2524
2016-06-07T04:45:15.968Z,2536
2016-06-07T04:46:16.002Z,2544
2016-06-07T04:47:16.021Z,2556
2016-06-07T04:48:16.102Z,2564
2016-06-07T04:49:16.136Z,2580
2016-06-07T04:50:16.044Z,2588
2016-06-07T04:51:16.172Z,2604
2016-06-07T04:52:16.205Z,2612
2016-06-07T04:53:16.115Z,2624
2016-06-07T04:54:16.290Z,2636
2016-06-07T04:55:16.214Z,2648
2016-06-07T04:56:16.388Z,2656
2016-06-07T04:57:16.454Z,2668
2016-06-07T04:58:16.472Z,2680
2016-06-07T04:59:16.538Z,2688
2016-06-07T05:00:16.665Z,2700
2016-06-07T05:01:16.574Z,2712
2016-06-07T05:02:16.623Z,2720
2016-06-07T05:03:16.673Z,2732
2016-06-07T05:04:16.723Z,2744
2016-06-07T05:05:16.741Z,2752
2016-06-07T05:06:16.791Z,2764
2016-06-07T05:07:17.731Z,2772
2016-06-07T05:08:16.671Z,2784
2016-06-07T05:09:16.923Z,2796
2016-06-07T05:10:16.958Z,2804
2016-06-07T05:11:17.023Z,2816
2016-06-07T05:12:17.041Z,2828
2016-06-07T05:13:17.075Z,2836
2016-06-07T05:14:17.125Z,2848
2016-06-07T05:15:17.206Z,2860
2016-06-07T05:16:17.192Z,2868
2016-06-07T05:17:17.179Z,2876
2016-06-07T05:18:17.339Z,2888
2016-06-07T05:19:17.388Z,2896
2016-06-07T05:20:17.688Z,2908
2016-06-07T05:21:17.408Z,2916
2016-06-07T05:22:17.569Z,2924
2016-06-07T05:23:17.586Z,2932
2016-06-07T05:24:17.855Z,2944
2016-06-07T05:25:17.591Z,2960
2016-06-07T05:26:17.704Z,2968
2016-06-07T05:27:17.644Z,2976
2016-06-07T05:28:17.694Z,2980
2016-06-07T05:29:17.774Z,2992
2016-06-07T05:30:18.354Z,3000
2016-06-07T05:31:18.092Z,3008
2016-06-07T05:32:17.860Z,3012
2016-06-07T05:33:17.910Z,3020
2016-06-07T05:34:17.851Z,3028
2016-06-07T05:35:17.979Z,3032
2016-06-07T05:36:18.028Z,3036
2016-06-07T05:37:18.701Z,3048
2016-06-07T05:38:18.127Z,3056
2016-06-07T05:39:18.176Z,3060
2016-06-07T05:40:18.679Z,3072
2016-06-07T05:41:18.353Z,3080
2016-06-07T05:42:18.356Z,3092
2016-06-07T05:43:18.328Z,3108
2016-06-07T05:44:18.378Z,3116
2016-06-07T05:45:18.458Z,3132
2016-06-07T05:46:18.430Z,3140
2016-06-07T05:47:19.197Z,3156
2016-06-07T05:48:18.372Z,3160
2016-06-07T05:49:18.609Z,3172
2016-06-07T05:50:18.611Z,3188
2016-06-07T05:51:18.724Z,3200
2016-06-07T05:52:18.977Z,3212
2016-06-07T05:53:20.574Z,3232
2016-06-07T05:54:18.780Z,3252
2016-06-07T05:55:19.000Z,3268
2016-06-07T05:56:18.894Z,3284
2016-06-07T05:57:18.897Z,3300
2016-06-07T05:58:19.197Z,3296
2016-06-07T05:59:19.027Z,3292
2016-06-07T06:00:19.232Z,3296
2016-06-07T06:01:19.080Z,3312
2016-06-07T06:02:19.129Z,3180
2016-06-07T06:03:19.147Z,3228
2016-06-07T06:04:19.259Z,3272
2016-06-07T06:05:19.262Z,3304
2016-06-07T06:06:19.265Z,3340
2016-06-07T06:07:20.533Z,3368
2016-06-07T06:08:19.551Z,3372
2016-06-07T06:09:19.413Z,3388
2016-06-07T06:10:19.432Z,3384
2016-06-07T06:11:19.512Z,3456
2016-06-07T06:12:19.578Z,3492
2016-06-07T06:13:19.862Z,3512
2016-06-07T06:14:19.598Z,3524
2016-06-07T06:15:19.695Z,3564
2016-06-07T06:16:19.728Z,3616
2016-06-07T06:17:19.732Z,3676
2016-06-07T06:18:19.656Z,3728
2016-06-07T06:19:19.878Z,3744
2016-06-07T06:20:19.880Z,3744
2016-06-07T06:21:22.274Z,3680
2016-06-07T06:22:29.652Z,3732
2016-06-07T06:23:30.686Z,3916
2016-06-07T06:24:31.907Z,4040
2016-06-07T06:25:23.191Z,4108
2016-06-07T06:26:20.131Z,4180
2016-06-07T06:27:23.149Z,4212
2016-06-07T06:28:24.714Z,4212
2016-06-07T06:29:20.388Z,4172
2016-06-07T06:30:23.752Z,4128
2016-06-07T06:31:24.597Z,4052
2016-06-07T06:32:27.146Z,4104
2016-06-07T06:33:26.072Z,4112
2016-06-07T06:34:20.465Z,4080
2016-06-07T06:35:22.014Z,4036
2016-06-07T06:36:24.892Z,4032
2016-06-07T06:37:28.051Z,4048
2016-06-07T06:38:23.898Z,4080
2016-06-07T06:39:20.665Z,4064
2016-06-07T06:40:20.700Z,4108
2016-06-07T06:41:20.733Z,4080
2016-06-07T06:42:28.331Z,4072
2016-06-07T06:43:20.818Z,4060
2016-06-07T06:44:28.586Z,4032
2016-06-07T06:45:27.619Z,3996
2016-06-07T06:46:20.998Z,3928
2016-06-07T06:47:21.015Z,3912
2016-06-07T06:48:21.049Z,3968
2016-06-07T06:49:21.131Z,4040
2016-06-07T06:50:25.289Z,4048
2016-06-07T06:51:21.167Z,4040
2016-06-07T06:52:21.060Z,4044
2016-06-07T06:53:23.829Z,4044
2016-06-07T06:54:26.097Z,4048
2016-06-07T06:55:21.333Z,4052
2016-06-07T06:56:21.369Z,4060
2016-06-07T06:57:21.449Z,4084
2016-06-07T06:58:28.452Z,4108
2016-06-07T06:59:27.188Z,4128
2016-06-07T07:00:21.643Z,4148
2016-06-07T07:01:28.741Z,4172
2016-06-07T07:02:21.525Z,4192
2016-06-07T07:03:21.871Z,4212
2016-06-07T07:04:21.780Z,4240
2016-06-07T07:05:21.861Z,4260
2016-06-07T07:06:22.020Z,4284
2016-06-07T07:07:22.085Z,4312
2016-06-07T07:08:22.728Z,4348
2016-06-07T07:09:21.965Z,4380
2016-06-07T07:10:22.015Z,4420
2016-06-07T07:11:22.267Z,4460
2016-06-07T07:12:22.239Z,4496
2016-06-07T07:13:22.164Z,4536
2016-06-07T07:14:22.370Z,4572
2016-06-07T07:15:22.200Z,4608
2016-06-07T07:16:22.812Z,4628
2016-06-07T07:17:23.440Z,4656
2016-06-07T07:18:22.317Z,4696
2016-06-07T07:19:22.414Z,4728
2016-06-07T07:20:23.213Z,4752
2016-06-07T07:21:22.592Z,4776
2016-06-07T07:22:22.781Z,4796
2016-06-07T07:23:22.736Z,4816
2016-06-07T07:24:22.912Z,4824
2016-06-07T07:25:22.555Z,4836
2016-06-07T07:26:22.652Z,4844
2016-06-07T07:27:22.826Z,4852
2016-06-07T07:28:22.750Z,4844
2016-06-07T07:29:23.566Z,4844
2016-06-07T07:30:22.881Z,4828
2016-06-07T07:31:22.930Z,4836
2016-06-07T07:32:24.246Z,4844
2016-06-07T07:33:25.093Z,4860
2016-06-07T07:34:25.158Z,4868
2016-06-07T07:35:23.488Z,4880
2016-06-07T07:36:23.210Z,4896
2016-06-07T07:37:24.525Z,4912
2016-06-07T07:38:23.246Z,4932
2016-06-07T07:39:23.217Z,4956
2016-06-07T07:40:23.267Z,4984
2016-06-07T07:41:23.677Z,5008
2016-06-07T07:42:24.163Z,5036
2016-06-07T07:43:23.385Z,5064
2016-06-07T07:44:23.434Z,5088
2016-06-07T07:45:23.578Z,5112
2016-06-07T07:46:23.970Z,5136
2016-06-07T07:47:23.599Z,5160
2016-06-07T07:48:23.617Z,5180
2016-06-07T07:49:23.681Z,5200
2016-06-07T07:50:23.731Z,5224
2016-06-07T07:51:24.047Z,5244
2016-06-07T07:52:24.269Z,5248
2016-06-07T07:53:24.521Z,5260
2016-06-07T07:54:24.742Z,5272
2016-06-07T07:55:24.980Z,5276
2016-06-07T07:56:25.325Z,5276
2016-06-07T07:57:24.297Z,5276
2016-06-07T07:58:24.066Z,5276
2016-06-07T07:59:24.381Z,5280
2016-06-07T08:00:24.149Z,5280
2016-06-07T08:01:24.964Z,5276
2016-06-07T08:02:24.249Z,5272
2016-06-07T08:03:24.454Z,5276
2016-06-07T08:04:25.941Z,5272
2016-06-07T08:05:24.396Z,5264
2016-06-07T08:06:24.931Z,5256
2016-06-07T08:07:27.685Z,5260
2016-06-07T08:08:26.062Z,5260
2016-06-07T08:09:24.768Z,5268
2016-06-07T08:10:24.582Z,5244
2016-06-07T08:11:24.679Z,5268
2016-06-07T08:12:24.698Z,5268
2016-06-07T08:13:25.106Z,5268
2016-06-07T08:14:26.171Z,5268
2016-06-07T08:15:25.064Z,5276
2016-06-07T08:16:25.098Z,5288
2016-06-07T08:17:25.195Z,5292
2016-06-07T08:18:25.651Z,5292
2016-06-07T08:19:25.513Z,5292
2016-06-07T08:20:25.531Z,5304
2016-06-07T08:21:25.689Z,5336
2016-06-07T08:22:27.552Z,5348
2016-06-07T08:23:26.899Z,5372
2016-06-07T08:24:27.339Z,5392
2016-06-07T08:25:26.575Z,5400
2016-06-07T08:26:25.422Z,5412
2016-06-07T08:27:25.628Z,5436
2016-06-07T08:28:25.833Z,5480
2016-06-07T08:29:25.806Z,5520
2016-06-07T08:30:26.261Z,5560
2016-06-07T08:31:26.092Z,5616
2016-06-07T08:32:26.641Z,5672
2016-06-07T08:33:26.582Z,5724
2016-06-07T08:34:27.084Z,5768
2016-06-07T08:35:26.946Z,5828
2016-06-07T08:36:26.106Z,5892
2016-06-07T08:37:26.546Z,5948
2016-06-07T08:38:26.595Z,5984
2016-06-07T08:39:26.332Z,6008
2016-06-07T08:40:30.006Z,6048
2016-06-07T08:41:26.151Z,6088
2016-06-07T08:42:26.090Z,6144
2016-06-07T08:43:26.031Z,6208
2016-06-07T08:44:26.283Z,6264
2016-06-07T08:45:28.254Z,6340
2016-06-07T08:46:25.945Z,6428
2016-06-07T08:47:26.151Z,6520
2016-06-07T08:48:27.840Z,6564
2016-06-07T08:49:26.890Z,6580
2016-06-07T08:50:27.158Z,6632
2016-06-07T08:51:26.912Z,6608
2016-06-07T08:52:27.336Z,6816
2016-06-07T08:53:27.276Z,6920
2016-06-07T08:54:27.247Z,6932
2016-06-07T08:55:27.906Z,6972
2016-06-07T08:56:26.659Z,7060
2016-06-07T08:57:27.428Z,7124
2016-06-07T08:58:26.805Z,7172
2016-06-07T08:59:26.777Z,7192
2016-06-07T09:00:26.858Z,7200
2016-06-07T09:01:26.750Z,7256
2016-06-07T09:02:26.894Z,7308
2016-06-07T09:03:27.428Z,7380
2016-06-07T09:04:27.118Z,7480
2016-06-07T09:05:27.246Z,7600
2016-06-07T09:06:28.608Z,7732
2016-06-07T09:07:29.501Z,7840
2016-06-07T09:08:31.332Z,7912
2016-06-07T09:09:28.741Z,7980
2016-06-07T09:10:28.618Z,7980
2016-06-07T09:11:32.419Z,8212
2016-06-07T09:12:33.734Z,8492
2016-06-07T09:13:28.299Z,8716
2016-06-07T09:14:29.707Z,8984
2016-06-07T09:15:28.929Z,9232
2016-06-07T09:16:30.073Z,9492
2016-06-07T09:17:30.122Z,9756
2016-06-07T09:18:31.125Z,9940
2016-06-07T09:19:29.503Z,10172
2016-06-07T09:20:29.676Z,10460
2016-06-07T09:21:28.555Z,10660
2016-06-07T09:22:30.526Z,10956
2016-06-07T09:23:30.513Z,11204
2016-06-07T09:24:28.641Z,11736
2016-06-07T09:25:28.472Z,12000
2016-06-07T09:26:29.272Z,11980
2016-06-07T09:27:31.165Z,12060
2016-06-07T09:28:29.964Z,12096
2016-06-07T09:29:30.638Z,12064
2016-06-07T09:30:30.047Z,11960
2016-06-07T09:31:30.879Z,11840
2016-06-07T09:32:28.897Z,11728
2016-06-07T09:33:30.509Z,11836
2016-06-07T09:34:30.309Z,11920
2016-06-07T09:35:30.124Z,11756
2016-06-07T09:36:31.110Z,11648
2016-06-07T09:37:31.113Z,11464
2016-06-07T09:38:30.194Z,11324
2016-06-07T09:39:30.368Z,11376
2016-06-07T09:40:34.418Z,11588
2016-06-07T09:41:33.718Z,11800
2016-06-07T09:42:30.252Z,11948
2016-06-07T09:43:30.504Z,12036
2016-06-07T09:44:30.726Z,11984
2016-06-07T09:45:30.103Z,11700
2016-06-07T09:46:29.982Z,11564
2016-06-07T09:47:31.281Z,11392
2016-06-07T09:48:32.596Z,11168
2016-06-07T09:49:41.334Z,11316
2016-06-07T09:50:34.632Z,11380
2016-06-07T09:51:34.432Z,11816
2016-06-07T09:52:35.467Z,11968
2016-06-07T09:53:37.828Z,11984
2016-06-07T09:54:38.081Z,12076
2016-06-07T09:55:49.131Z,12224
2016-06-07T09:56:36.352Z,12352
2016-06-07T09:57:34.776Z,12372
2016-06-07T09:58:38.670Z,12256
2016-06-07T09:59:37.328Z,12356
2016-06-07T10:00:35.644Z,12464
2016-06-07T10:01:45.959Z,12468
2016-06-07T10:02:35.133Z,12332
2016-06-07T10:03:34.386Z,12548
2016-06-07T10:04:36.155Z,12732
2016-06-07T10:05:36.392Z,13064
2016-06-07T10:06:38.144Z,13332
2016-06-07T10:07:34.632Z,13580
2016-06-07T10:08:38.275Z,13784
2016-06-07T10:09:35.419Z,13988
2016-06-07T10:10:37.093Z,14004
2016-06-07T10:11:37.126Z,13996
2016-06-07T10:12:35.254Z,13936
2016-06-07T10:13:36.194Z,13956
2016-06-07T10:14:34.432Z,14064
2016-06-07T10:15:33.466Z,14100
2016-06-07T10:16:36.952Z,14052
2016-06-07T10:17:32.846Z,14032
2016-06-07T10:18:52.599Z,14120
2016-06-07T10:19:38.119Z,14072
2016-06-07T10:20:34.119Z,13952
2016-06-07T10:21:42.576Z,13788
2016-06-07T10:22:34.513Z,13644
2016-06-07T10:23:39.472Z,13432
2016-06-07T10:24:35.097Z,13328
2016-06-07T10:25:33.943Z,13428
2016-06-07T10:26:35.635Z,13564
2016-06-07T10:27:35.043Z,13652
2016-06-07T10:28:38.093Z,13684
2016-06-07T10:29:38.782Z,13812
2016-06-07T10:30:34.613Z,13976
2016-06-07T10:31:33.975Z,14212
2016-06-07T10:32:35.619Z,14608
2016-06-07T10:33:38.309Z,15172
2016-06-07T10:34:33.609Z,16828
2016-06-07T10:35:36.190Z,28800
2016-06-07T10:36:35.036Z,52288
2016-06-07T10:37:35.304Z,75360
2016-06-07T10:38:35.478Z,78464
2016-06-07T10:39:35.951Z,88384
2016-06-07T10:40:38.672Z,99520
2016-06-07T10:41:37.675Z,102400
2016-06-07T10:42:33.787Z,109504
2016-06-07T10:43:34.711Z,107296
2016-06-07T10:44:34.120Z,96768
2016-06-07T10:45:35.576Z,88320
2016-06-07T10:46:39.594Z,72800
2016-06-07T10:47:37.253Z,56608
2016-06-07T10:48:35.505Z,78336
2016-06-07T10:49:35.962Z,84736
2016-06-07T10:50:38.605Z,84416
2016-06-07T10:51:35.327Z,77760
2016-06-07T10:52:35.938Z,68416
2016-06-07T10:53:36.910Z,70944
2016-06-07T10:54:35.849Z,73760
2016-06-07T10:55:35.428Z,76416
2016-06-07T10:56:35.946Z,62816
2016-06-07T10:57:33.760Z,84544
2016-06-07T10:58:34.496Z,100416
2016-06-07T10:59:34.296Z,114240
2016-06-07T11:00:32.524Z,110880
2016-06-07T11:01:33.610Z,106656
2016-06-07T11:02:33.758Z,96032
2016-06-07T11:03:34.033Z,64288
2016-06-07T11:04:32.931Z,88576
2016-06-07T11:05:34.265Z,77920
2016-06-07T11:06:33.362Z,79520
2016-06-07T11:07:34.508Z,85120
2016-06-07T11:08:32.950Z,99328
2016-06-07T11:09:33.065Z,103008
2016-06-07T11:10:33.287Z,112352
2016-06-07T11:11:33.711Z,118144
2016-06-07T11:12:34.247Z,121920
2016-06-07T11:13:33.938Z,122368
2016-06-07T11:14:33.284Z,122400
2016-06-07T11:15:33.804Z,111520
2016-06-07T11:16:34.713Z,97280
2016-06-07T11:17:33.622Z,99360
2016-06-07T11:18:33.578Z,92800
2016-06-07T11:19:33.425Z,100832
2016-06-07T11:20:33.506Z,94688
2016-06-07T11:21:33.775Z,76544
2016-06-07T11:22:33.777Z,107840
2016-06-07T11:23:34.436Z,105472
2016-06-07T11:24:33.766Z,103168
2016-06-07T11:25:33.941Z,90080
2016-06-07T11:26:33.975Z,78240
2016-06-07T11:27:34.446Z,85632
2016-06-07T11:28:34.122Z,95552
2016-06-07T11:29:34.202Z,96032
2016-06-07T11:30:34.299Z,108224
2016-06-07T11:31:34.394Z,107808
2016-06-07T11:32:34.367Z,61120
2016-06-07T11:33:34.432Z,90944
2016-06-07T11:34:34.497Z,98752
2016-06-07T11:35:34.530Z,89568
2016-06-07T11:36:34.596Z,93920
2016-06-07T11:37:35.004Z,93600
2016-06-07T11:38:35.726Z,105952
2016-06-07T11:39:34.729Z,110368
2016-06-07T11:40:34.809Z,100672
2016-06-07T11:41:34.890Z,102912
2016-06-07T11:42:34.971Z,108768
2016-06-07T11:43:34.974Z,116992
2016-06-07T11:44:35.040Z,117568
2016-06-07T11:45:35.151Z,115584
2016-06-07T11:46:35.154Z,111584
2016-06-07T11:47:35.219Z,110592
2016-06-07T11:48:35.284Z,102240
2016-06-07T11:49:35.397Z,98080
2016-06-07T11:50:35.509Z,87168
2016-06-07T11:51:35.762Z,94368
2016-06-07T11:52:35.530Z,95808
2016-06-07T11:53:36.048Z,99840
2016-06-07T11:54:35.738Z,102848
2016-06-07T11:55:35.803Z,95040
2016-06-07T11:56:36.040Z,91680
2016-06-07T11:57:36.122Z,80704
2016-06-07T11:58:36.624Z,73504
2016-06-07T11:59:36.017Z,68352
2016-06-07T12:00:36.020Z,75072
2016-06-07T12:01:36.397Z,81248
2016-06-07T12:02:36.619Z,78496
2016-06-07T12:03:36.730Z,79360
2016-06-07T12:04:36.233Z,82816
2016-06-07T12:05:36.455Z,82880
2016-06-07T12:06:36.364Z,79552
2016-06-07T12:07:36.852Z,76576
2016-06-07T12:08:37.088Z,75936
2016-06-07T12:09:36.779Z,79808
2016-06-07T12:10:36.968Z,76992
2016-06-07T12:11:36.971Z,85472
2016-06-07T12:12:36.989Z,88096
2016-06-07T12:13:36.882Z,83584
2016-06-07T12:14:37.229Z,80704
2016-06-07T12:15:37.029Z,77504
2016-06-07T12:16:37.423Z,77344
2016-06-07T12:17:37.143Z,75872
2016-06-07T12:18:37.256Z,67584
2016-06-07T12:19:37.134Z,62912
2016-06-07T12:20:37.183Z,67040
2016-06-07T12:21:37.326Z,71968
2016-06-07T12:22:37.532Z,66688
2016-06-07T12:23:37.926Z,72256
2016-06-07T12:24:37.553Z,78656
2016-06-07T12:25:37.775Z,76224
2016-06-07T12:26:37.731Z,81312
2016-06-07T12:27:37.889Z,81184
2016-06-07T12:28:37.705Z,78112
2016-06-07T12:29:37.832Z,68768
2016-06-07T12:30:37.788Z,60576
2016-06-07T12:31:38.338Z,67392
2016-06-07T12:32:37.888Z,80416
2016-06-07T12:33:38.233Z,81568
2016-06-07T12:34:38.064Z,79648
2016-06-07T12:35:37.910Z,77888
2016-06-07T12:36:38.476Z,77824
2016-06-07T12:37:38.244Z,75680
2016-06-07T12:38:38.231Z,72512
2016-06-07T12:39:38.296Z,77664
2016-06-07T12:40:38.971Z,80384
2016-06-07T12:41:38.568Z,83200
2016-06-07T12:42:38.618Z,85632
2016-06-07T12:43:38.620Z,87872
2016-06-07T12:44:38.607Z,88160
2016-06-07T12:45:38.890Z,85248
2016-06-07T12:46:39.206Z,82240
2016-06-07T12:47:38.803Z,90752
2016-06-07T12:48:38.884Z,92480
2016-06-07T12:49:38.965Z,88640
2016-06-07T12:50:39.061Z,86496
2016-06-07T12:51:39.282Z,90912
2016-06-07T12:52:39.363Z,87488
2016-06-07T12:53:39.881Z,91968
2016-06-07T12:54:40.447Z,90208
2016-06-07T12:55:39.230Z,85888
2016-06-07T12:56:43.561Z,86880
2016-06-07T12:57:39.517Z,89472
2016-06-07T12:58:40.020Z,86080
2016-06-07T12:59:39.585Z,86784
2016-06-07T13:00:40.244Z,83168
2016-06-07T13:01:39.590Z,81248
2016-06-07T13:02:39.639Z,79872
2016-06-07T13:03:39.736Z,78816
2016-06-07T13:04:39.786Z,78144
2016-06-07T13:05:39.836Z,83200
2016-06-07T13:06:39.994Z,84832
2016-06-07T13:07:39.934Z,83840
2016-06-07T13:08:39.906Z,80960
2016-06-07T13:09:41.033Z,79232
2016-06-07T13:10:40.146Z,73536
2016-06-07T13:11:40.179Z,70176
2016-06-07T13:12:40.463Z,74304
2016-06-07T13:13:40.560Z,78976
2016-06-07T13:14:40.359Z,84960
2016-06-07T13:15:40.471Z,84352
2016-06-07T13:16:40.521Z,86048
2016-06-07T13:17:40.570Z,83584
2016-06-07T13:18:41.807Z,78208
2016-06-07T13:19:40.935Z,81312
2016-06-07T13:20:40.735Z,77120
2016-06-07T13:21:40.972Z,86624
2016-06-07T13:22:40.834Z,81920
2016-06-07T13:23:41.009Z,81760
2016-06-07T13:24:43.995Z,85696
2016-06-07T13:25:42.233Z,88032
2016-06-07T13:26:56.286Z,82848